Time,TemperatureF,DewpointF,PressureIn,WindDirection,WindDirectionDegrees,WindSpeedMPH,WindSpeedGustMPH,Humidity,HourlyPrecipIn,Conditions,Clouds,dailyrainin,SolarRadiationWatts/m^2,SoftwareType,DateUTC
2013-06-14 00:14:00,55.8,53.0,29.72,SE,126,1.0,3.0,91,0.00,,,0.00,0,weatherlink.com 1.10,2013-06-14 04:14:00,
2013-06-14 00:29:00,55.4,53.0,29.71,SSW,205,1.0,2.0,92,0.00,,,0.00,0,weatherlink.com 1.10,2013-06-14 04:29:00,
2013-06-14 00:44:00,55.8,54.0,29.72,WSW,257,3.0,4.0,94,0.00,,,0.00,0,weatherlink.com 1.10,2013-06-14 04:44:00,
2013-06-14 00:59:00,56.0,54.0,29.72,SSW,212,1.0,3.0,93,0.00,,,0.00,0,weatherlink.com 1.10,2013-06-14 04:59:00,
2013-06-14 01:14:00,55.4,54.0,29.72,South,172,0.0,2.0,93,0.00,,,0.00,0,weatherlink.com 1.10,2013-06-14 05:14:00,
2013-06-14 01:29:00,54.3,52.0,29.71,South,170,2.0,3.0,93,0.00,,,0.00,0,weatherlink.com 1.10,2013-06-14 05:29:00,
2013-06-14 01:44:00,53.7,52.0,29.71,SSE,147,1.0,2.0,93,0.00,,,0.00,0,weatherlink.com 1.10,2013-06-14 05:44:00,
2013-06-14 01:59:00,53.1,51.0,29.71,South,190,1.0,4.0,93,0.00,,,0.00,0,weatherlink.com 1.10,2013-06-14 05:59:00,
2013-06-14 02:14:00,53.4,52.0,29.70,SE,138,1.0,2.0,94,0.00,,,0.00,0,weatherlink.com 1.10,2013-06-14 06:14:00,
2013-06-14 02:29:00,53.0,51.0,29.70,SE,134,1.0,2.0,94,0.00,,,0.00,0,weatherlink.com 1.10,2013-06-14 06:29:00,
2013-06-14 02:44:00,52.8,51.0,29.70,SW,215,1.0,3.0,94,0.00,,,0.00,0,weatherlink.com 1.10,2013-06-14 06:44:00,
2013-06-14 02:59:00,52.6,51.0,29.70,WSW,250,1.0,3.0,94,0.00,,,0.00,0,weatherlink.com 1.10,2013-06-14 06:59:00,
2013-06-14 03:14:00,52.5,51.0,29.70,South,180,2.0,3.0,94,0.00,,,0.00,0,weatherlink.com 1.10,2013-06-14 07:14:00,
2013-06-14 03:29:00,52.5,51.0,29.70,West,269,1.0,4.0,93,0.00,,,0.00,0,weatherlink.com 1.10,2013-06-14 07:29:00,
2013-06-14 03:44:00,52.4,51.0,29.70,SSW,207,2.0,4.0,93,0.00,,,0.00,0,weatherlink.com 1.10,2013-06-14 07:44:00,
2013-06-14 03:59:00,52.3,50.0,29.70,SSW,205,2.0,3.0,92,0.00,,,0.00,0,weatherlink.com 1.10,2013-06-14 07:59:00,
2013-06-14 04:14:00,52.1,50.0,29.70,SE,132,2.0,4.0,92,0.00,,,0.00,0,weatherlink.com 1.10,2013-06-14 08:14:00,
2013-06-14 04:29:00,51.9,50.0,29.71,South,177,2.0,3.0,92,0.00,,,0.00,0,weatherlink.com 1.10,2013-06-14 08:29:00,
2013-06-14 04:44:00,51.6,49.0,29.72,SSE,151,0.0,2.0,92,0.00,,,0.00,0,weatherlink.com 1.10,2013-06-14 08:44:00,
2013-06-14 04:59:00,51.4,49.0,29.73,SW,223,1.0,2.0,92,0.00,,,0.00,0,weatherlink.com 1.10,2013-06-14 08:59:00,
2013-06-14 05:14:00,51.7,50.0,29.73,South,171,0.0,2.0,92,0.00,,,0.00,0,weatherlink.com 1.10,2013-06-14 09:14:00,
2013-06-14 05:29:00,51.6,50.0,29.73,South,186,2.0,3.0,93,0.00,,,0.00,5,weatherlink.com 1.10,2013-06-14 09:29:00,
2013-06-14 05:45:00,51.9,50.0,29.73,WSW,248,4.0,4.0,93,0.01,,,0.01,12,weatherlink.com 1.10,2013-06-14 09:45:00,
2013-06-14 06:00:00,52.1,50.0,29.73,SW,229,2.0,5.0,93,0.01,,,0.01,21,weatherlink.com 1.10,2013-06-14 10:00:00,
2013-06-14 06:15:00,52.3,50.0,29.74,SW,231,1.0,6.0,93,0.01,,,0.01,37,weatherlink.com 1.10,2013-06-14 10:15:00,
2013-06-14 06:30:00,52.6,51.0,29.74,SSW,200,2.0,3.0,93,0.01,,,0.01,123,weatherlink.com 1.10,2013-06-14 10:30:00,
2013-06-14 06:45:00,53.3,51.0,29.75,SW,221,2.0,4.0,93,0.00,,,0.01,158,weatherlink.com 1.10,2013-06-14 10:45:00,
2013-06-14 07:00:00,53.9,52.0,29.75,SW,214,3.0,4.0,93,0.00,,,0.01,195,weatherlink.com 1.10,2013-06-14 11:00:00,
2013-06-14 07:15:00,54.6,52.0,29.75,SSW,210,1.0,4.0,92,0.00,,,0.01,236,weatherlink.com 1.10,2013-06-14 11:15:00,
2013-06-14 07:30:00,55.7,54.0,29.75,WSW,248,2.0,3.0,92,0.00,,,0.01,243,weatherlink.com 1.10,2013-06-14 11:30:00,
2013-06-14 07:45:00,56.6,54.0,29.76,West,267,3.0,5.0,90,0.00,,,0.01,304,weatherlink.com 1.10,2013-06-14 11:45:00,
2013-06-14 08:00:00,58.1,55.0,29.76,NNW,327,4.0,5.0,88,0.00,,,0.01,125,weatherlink.com 1.10,2013-06-14 12:00:00,
2013-06-14 08:15:00,59.2,55.0,29.77,NW,313,2.0,8.0,85,0.00,,,0.01,58,weatherlink.com 1.10,2013-06-14 12:15:00,
2013-06-14 08:30:00,59.9,55.0,29.78,NNW,346,4.0,7.0,84,0.00,,,0.01,67,weatherlink.com 1.10,2013-06-14 12:30:00,
2013-06-14 08:45:00,61.6,56.0,29.78,WNW,302,4.0,6.0,82,0.00,,,0.01,88,weatherlink.com 1.10,2013-06-14 12:45:00,
2013-06-14 09:00:00,62.6,57.0,29.78,NNW,328,2.0,8.0,82,0.00,,,0.01,76,weatherlink.com 1.10,2013-06-14 13:00:00,
2013-06-14 09:15:00,64.0,57.0,29.78,NW,311,4.0,10.0,77,0.00,,,0.01,114,weatherlink.com 1.10,2013-06-14 13:15:00,
2013-06-14 09:30:00,64.8,56.0,29.79,North,5,4.0,6.0,74,0.00,,,0.01,100,weatherlink.com 1.10,2013-06-14 13:30:00,
2013-06-14 09:45:00,65.6,56.0,29.79,NNW,338,6.0,8.0,72,0.00,,,0.01,102,weatherlink.com 1.10,2013-06-14 13:45:00,
2013-06-14 10:00:00,66.2,55.0,29.79,NE,42,5.0,9.0,68,0.00,,,0.01,232,weatherlink.com 1.10,2013-06-14 14:00:00,
2013-06-14 10:16:00,66.4,55.0,29.79,NNE,24,6.0,9.0,66,0.00,,,0.01,631,weatherlink.com 1.10,2013-06-14 14:16:00,
2013-06-14 10:31:00,66.9,56.0,29.79,NNE,26,5.0,10.0,67,0.00,,,0.01,740,weatherlink.com 1.10,2013-06-14 14:31:00,
2013-06-14 10:46:00,67.9,55.0,29.80,NE,42,5.0,10.0,64,0.00,,,0.01,761,weatherlink.com 1.10,2013-06-14 14:46:00,
2013-06-14 11:01:00,69.0,56.0,29.80,NW,325,3.0,8.0,64,0.00,,,0.01,786,weatherlink.com 1.10,2013-06-14 15:01:00,
2013-06-14 11:16:00,68.9,54.0,29.80,North,5,7.0,13.0,60,0.00,,,0.01,828,weatherlink.com 1.10,2013-06-14 15:16:00,
2013-06-14 11:31:00,69.6,55.0,29.80,NNW,336,6.0,12.0,60,0.00,,,0.01,835,weatherlink.com 1.10,2013-06-14 15:31:00,
2013-06-14 11:46:00,70.9,55.0,29.80,NNE,27,8.0,12.0,57,0.00,,,0.01,687,weatherlink.com 1.10,2013-06-14 15:46:00,
2013-06-14 12:01:00,70.9,55.0,29.79,NW,305,7.0,11.0,57,0.00,,,0.01,863,weatherlink.com 1.10,2013-06-14 16:01:00,
2013-06-14 12:16:00,71.2,56.0,29.79,North,11,3.0,13.0,58,0.00,,,0.01,888,weatherlink.com 1.10,2013-06-14 16:16:00,
2013-06-14 12:31:00,71.9,56.0,29.79,North,10,2.0,9.0,58,0.00,,,0.01,907,weatherlink.com 1.10,2013-06-14 16:31:00,
2013-06-14 13:01:00,73.3,57.0,29.79,NNE,30,5.0,11.0,56,0.00,,,0.01,1062,weatherlink.com 1.10,2013-06-14 17:01:00,
2013-06-14 13:16:00,73.1,57.0,29.79,NW,325,4.0,12.0,58,0.00,,,0.01,1065,weatherlink.com 1.10,2013-06-14 17:16:00,
2013-06-14 13:31:00,72.5,58.0,29.80,NNW,336,7.0,13.0,61,0.00,,,0.01,185,weatherlink.com 1.10,2013-06-14 17:31:00,
2013-06-14 13:46:00,73.1,56.0,29.79,North,5,10.0,13.0,56,0.00,,,0.01,967,weatherlink.com 1.10,2013-06-14 17:46:00,
2013-06-14 14:01:00,72.9,57.0,29.79,NNW,327,6.0,13.0,57,0.00,,,0.01,884,weatherlink.com 1.10,2013-06-14 18:01:00,
2013-06-14 14:16:00,74.1,57.0,29.80,NW,325,6.0,11.0,55,0.00,,,0.01,900,weatherlink.com 1.10,2013-06-14 18:16:00,
2013-06-14 14:31:00,74.1,56.0,29.79,NNW,341,9.0,10.0,53,0.00,,,0.01,227,weatherlink.com 1.10,2013-06-14 18:31:00,
2013-06-14 14:46:00,74.6,56.0,29.79,WNW,296,7.0,13.0,52,0.00,,,0.01,916,weatherlink.com 1.10,2013-06-14 18:46:00,
2013-06-14 15:01:00,74.6,57.0,29.79,WNW,297,5.0,10.0,54,0.00,,,0.01,916,weatherlink.com 1.10,2013-06-14 19:01:00,
2013-06-14 15:16:00,75.1,57.0,29.79,NW,307,4.0,15.0,53,0.00,,,0.01,301,weatherlink.com 1.10,2013-06-14 19:16:00,
2013-06-14 15:31:00,74.8,55.0,29.79,NW,321,8.0,13.0,51,0.00,,,0.01,886,weatherlink.com 1.10,2013-06-14 19:31:00,
2013-06-14 15:46:00,75.4,54.0,29.79,NW,309,7.0,15.0,47,0.00,,,0.01,775,weatherlink.com 1.10,2013-06-14 19:46:00,
2013-06-14 16:01:00,75.7,54.0,29.79,NW,311,4.0,14.0,47,0.00,,,0.01,700,weatherlink.com 1.10,2013-06-14 20:01:00,
2013-06-14 16:16:00,75.3,53.0,29.79,NW,324,6.0,17.0,46,0.00,,,0.01,659,weatherlink.com 1.10,2013-06-14 20:16:00,
2013-06-14 16:31:00,75.7,53.0,29.79,WNW,287,9.0,13.0,46,0.00,,,0.01,659,weatherlink.com 1.10,2013-06-14 20:31:00,
2013-06-14 16:46:00,76.3,52.0,29.80,NW,323,12.0,14.0,43,0.00,,,0.01,520,weatherlink.com 1.10,2013-06-14 20:46:00,
2013-06-14 17:01:00,75.5,51.0,29.80,NW,317,11.0,15.0,42,0.00,,,0.01,547,weatherlink.com 1.10,2013-06-14 21:01:00,
2013-06-14 17:16:00,76.6,52.0,29.80,North,355,4.0,12.0,42,0.00,,,0.01,503,weatherlink.com 1.10,2013-06-14 21:16:00,
2013-06-14 17:31:00,75.2,50.0,29.80,NNW,327,10.0,14.0,41,0.00,,,0.01,462,weatherlink.com 1.10,2013-06-14 21:31:00,
2013-06-14 17:46:00,76.0,50.0,29.81,WNW,297,7.0,10.0,40,0.00,,,0.01,420,weatherlink.com 1.10,2013-06-14 21:46:00,
2013-06-14 18:01:00,75.0,48.0,29.81,NW,323,4.0,14.0,38,0.00,,,0.01,381,weatherlink.com 1.10,2013-06-14 22:01:00,
2013-06-14 18:16:00,74.9,47.0,29.81,NNW,348,9.0,15.0,37,0.00,,,0.01,343,weatherlink.com 1.10,2013-06-14 22:16:00,
2013-06-14 18:31:00,75.1,46.0,29.81,NNW,327,5.0,13.0,36,0.00,,,0.01,302,weatherlink.com 1.10,2013-06-14 22:31:00,
2013-06-14 18:46:00,74.9,46.0,29.81,WNW,296,5.0,13.0,36,0.00,,,0.01,271,weatherlink.com 1.10,2013-06-14 22:46:00,
2013-06-14 19:01:00,75.3,46.0,29.82,NW,315,5.0,10.0,35,0.00,,,0.01,223,weatherlink.com 1.10,2013-06-14 23:01:00,
2013-06-14 19:16:00,74.0,45.0,29.82,North,360,5.0,11.0,35,0.00,,,0.01,169,weatherlink.com 1.10,2013-06-14 23:16:00,
2013-06-14 19:31:00,73.4,45.0,29.82,NNE,17,4.0,10.0,37,0.00,,,0.01,135,weatherlink.com 1.10,2013-06-14 23:31:00,
2013-06-14 19:46:00,72.8,46.0,29.82,NW,322,1.0,8.0,39,0.00,,,0.01,79,weatherlink.com 1.10,2013-06-14 23:46:00,
2013-06-14 20:01:00,72.2,46.0,29.82,NNW,348,3.0,5.0,40,0.00,,,0.01,54,weatherlink.com 1.10,2013-06-15 00:01:00,
2013-06-14 20:17:00,71.5,47.0,29.83,NNW,330,2.0,5.0,42,0.00,,,0.01,28,weatherlink.com 1.10,2013-06-15 00:17:00,
2013-06-14 20:32:00,70.3,47.0,29.82,NNW,329,1.0,6.0,43,0.00,,,0.01,12,weatherlink.com 1.10,2013-06-15 00:32:00,
2013-06-14 20:47:00,69.1,47.0,29.83,NNW,338,3.0,5.0,45,0.00,,,0.01,0,weatherlink.com 1.10,2013-06-15 00:47:00,
2013-06-14 21:02:00,68.4,47.0,29.83,NW,317,3.0,4.0,47,0.00,,,0.01,0,weatherlink.com 1.10,2013-06-15 01:02:00,
2013-06-14 21:17:00,68.0,47.0,29.84,NW,309,2.0,4.0,47,0.00,,,0.01,0,weatherlink.com 1.10,2013-06-15 01:17:00,
2013-06-14 21:32:00,66.6,47.0,29.85,WNW,283,1.0,5.0,49,0.00,,,0.01,0,weatherlink.com 1.10,2013-06-15 01:32:00,
2013-06-14 21:47:00,65.7,47.0,29.86,NW,314,4.0,5.0,51,0.00,,,0.01,0,weatherlink.com 1.10,2013-06-15 01:47:00,
2013-06-14 22:02:00,65.3,47.0,29.86,NW,316,4.0,5.0,51,0.00,,,0.01,0,weatherlink.com 1.10,2013-06-15 02:02:00,
2013-06-14 22:17:00,65.0,46.0,29.86,NNW,340,2.0,5.0,50,0.00,,,0.01,0,weatherlink.com 1.10,2013-06-15 02:17:00,
2013-06-14 22:32:00,64.7,45.0,29.86,NW,325,4.0,5.0,50,0.00,,,0.01,0,weatherlink.com 1.10,2013-06-15 02:32:00,
2013-06-14 22:47:00,62.7,45.0,29.86,WNW,299,2.0,4.0,53,0.00,,,0.01,0,weatherlink.com 1.10,2013-06-15 02:47:00,
2013-06-14 23:02:00,62.7,45.0,29.86,NW,315,1.0,5.0,53,0.00,,,0.01,0,weatherlink.com 1.10,2013-06-15 03:02:00,
2013-06-14 23:17:00,60.1,48.0,29.87,SSW,212,1.0,3.0,65,0.00,,,0.01,0,weatherlink.com 1.10,2013-06-15 03:17:00,
2013-06-14 23:32:00,58.4,47.0,29.86,SW,217,2.0,3.0,65,0.00,,,0.01,0,weatherlink.com 1.10,2013-06-15 03:32:00,
2013-06-14 23:47:00,57.0,47.0,29.87,South,190,2.0,2.0,70,0.00,,,0.01,0,weatherlink.com 1.10,2013-06-15 03:47:00,